sensor_id;sensor_type;location;lat;lon;timestamp;temperature;humidity
8872;DHT22;4472;52.092;9.820;2023-03-31T00:00:17;12.00;99.90
8872;DHT22;4472;52.092;9.820;2023-03-31T00:03:04;12.00;99.90
8872;DHT22;4472;52.092;9.820;2023-03-31T00:05:55;12.00;99.90
8872;DHT22;4472;52.092;9.820;2023-03-31T00:08:43;12.10;99.90
8872;DHT22;4472;52.092;9.820;2023-03-31T00:11:32;11.90;99.90
8872;DHT22;4472;52.092;9.820;2023-03-31T00:14:20;12.00;99.90
8872;DHT22;4472;52.092;9.820;2023-03-31T00:17:07;12.00;99.90
8872;DHT22;4472;52.092;9.820;2023-03-31T00:19:54;12.00;99.90
8872;DHT22;4472;52.092;9.820;2023-03-31T00:22:45;12.00;99.90
8872;DHT22;4472;52.092;9.820;2023-03-31T00:25:32;12.00;99.90
8872;DHT22;4472;52.092;9.820;2023-03-31T00:28:21;12.00;99.90
8872;DHT22;4472;52.092;9.820;2023-03-31T00:31:08;11.90;99.90
8872;DHT22;4472;52.092;9.820;2023-03-31T00:33:55;11.90;99.90
8872;DHT22;4472;52.092;9.820;2023-03-31T00:36:42;11.90;99.90
8872;DHT22;4472;52.092;9.820;2023-03-31T00:39:32;11.90;99.90
8872;DHT22;4472;52.092;9.820;2023-03-31T00:42:20;11.90;99.90
8872;DHT22;4472;52.092;9.820;2023-03-31T00:45:32;11.90;99.90
8872;DHT22;4472;52.092;9.820;2023-03-31T00:48:20;11.80;99.90
8872;DHT22;4472;52.092;9.820;2023-03-31T00:51:09;11.80;99.90
8872;DHT22;4472;52.092;9.820;2023-03-31T00:53:58;11.80;99.90
8872;DHT22;4472;52.092;9.820;2023-03-31T00:56:48;11.80;99.90
8872;DHT22;4472;52.092;9.820;2023-03-31T00:59:39;11.80;99.90
8872;DHT22;4472;52.092;9.820;2023-03-31T01:02:28;11.80;99.90
8872;DHT22;4472;52.092;9.820;2023-03-31T01:05:17;11.80;99.90
8872;DHT22;4472;52.092;9.820;2023-03-31T01:08:06;11.80;99.90
8872;DHT22;4472;52.092;9.820;2023-03-31T01:10:56;11.80;99.90
8872;DHT22;4472;52.092;9.820;2023-03-31T01:13:43;11.80;99.90
8872;DHT22;4472;52.092;9.820;2023-03-31T01:16:34;11.80;99.90
8872;DHT22;4472;52.092;9.820;2023-03-31T01:19:32;11.80;99.90
8872;DHT22;4472;52.092;9.820;2023-03-31T01:22:48;11.80;99.90
8872;DHT22;4472;52.092;9.820;2023-03-31T01:25:58;11.70;99.90
8872;DHT22;4472;52.092;9.820;2023-03-31T01:28:56;11.70;99.90
8872;DHT22;4472;52.092;9.820;2023-03-31T01:32:03;11.70;99.90
8872;DHT22;4472;52.092;9.820;2023-03-31T01:38:27;11.50;99.90
8872;DHT22;4472;52.092;9.820;2023-03-31T01:41:31;11.50;99.90
8872;DHT22;4472;52.092;9.820;2023-03-31T01:44:26;11.40;99.90
8872;DHT22;4472;52.092;9.820;2023-03-31T01:47:19;11.40;99.90
8872;DHT22;4472;52.092;9.820;2023-03-31T01:50:15;11.30;99.90
8872;DHT22;4472;52.092;9.820;2023-03-31T01:53:09;11.20;99.90
8872;DHT22;4472;52.092;9.820;2023-03-31T01:56:02;11.20;99.90
8872;DHT22;4472;52.092;9.820;2023-03-31T01:58:57;11.10;99.90
8872;DHT22;4472;52.092;9.820;2023-03-31T02:01:51;11.10;99.90
8872;DHT22;4472;52.092;9.820;2023-03-31T02:04:42;11.10;99.90
8872;DHT22;4472;52.092;9.820;2023-03-31T02:07:33;11.00;99.90
8872;DHT22;4472;52.092;9.820;2023-03-31T02:10:24;11.00;99.90
8872;DHT22;4472;52.092;9.820;2023-03-31T02:13:13;11.00;99.90
8872;DHT22;4472;52.092;9.820;2023-03-31T02:16:07;11.10;99.90
8872;DHT22;4472;52.092;9.820;2023-03-31T02:18:57;11.00;99.90
8872;DHT22;4472;52.092;9.820;2023-03-31T02:21:49;11.00;99.90
8872;DHT22;4472;52.092;9.820;2023-03-31T02:24:37;11.00;99.90
8872;DHT22;4472;52.092;9.820;2023-03-31T02:27:28;11.00;99.90
8872;DHT22;4472;52.092;9.820;2023-03-31T02:30:17;10.90;99.90
8872;DHT22;4472;52.092;9.820;2023-03-31T02:33:06;10.90;99.90
8872;DHT22;4472;52.092;9.820;2023-03-31T02:35:53;9.70;99.90
8872;DHT22;4472;52.092;9.820;2023-03-31T02:38:43;10.70;99.90
8872;DHT22;4472;52.092;9.820;2023-03-31T02:41:32;10.70;99.90
8872;DHT22;4472;52.092;9.820;2023-03-31T02:44:19;10.60;99.90
8872;DHT22;4472;52.092;9.820;2023-03-31T02:47:09;10.60;99.90
8872;DHT22;4472;52.092;9.820;2023-03-31T02:49:59;10.50;99.90
8872;DHT22;4472;52.092;9.820;2023-03-31T02:52:54;10.50;99.90
8872;DHT22;4472;52.092;9.820;2023-03-31T02:56:01;10.50;99.90
8872;DHT22;4472;52.092;9.820;2023-03-31T02:59:12;10.50;99.90
8872;DHT22;4472;52.092;9.820;2023-03-31T03:02:09;10.50;99.90
8872;DHT22;4472;52.092;9.820;2023-03-31T03:05:21;10.50;99.90
8872;DHT22;4472;52.092;9.820;2023-03-31T03:08:18;10.50;99.90
8872;DHT22;4472;52.092;9.820;2023-03-31T03:11:12;10.50;99.90
8872;DHT22;4472;52.092;9.820;2023-03-31T03:14:08;10.60;99.90
8872;DHT22;4472;52.092;9.820;2023-03-31T03:17:01;10.50;99.90
8872;DHT22;4472;52.092;9.820;2023-03-31T03:19:58;10.50;99.90
8872;DHT22;4472;52.092;9.820;2023-03-31T03:22:47;10.50;99.90
8872;DHT22;4472;52.092;9.820;2023-03-31T03:25:34;10.50;99.90
8872;DHT22;4472;52.092;9.820;2023-03-31T03:28:21;10.50;99.90
8872;DHT22;4472;52.092;9.820;2023-03-31T03:31:08;10.50;99.90
8872;DHT22;4472;52.092;9.820;2023-03-31T03:33:55;10.50;99.90
8872;DHT22;4472;52.092;9.820;2023-03-31T03:36:42;10.50;99.90
8872;DHT22;4472;52.092;9.820;2023-03-31T03:39:31;10.50;99.90
8872;DHT22;4472;52.092;9.820;2023-03-31T03:42:18;10.50;99.90
8872;DHT22;4472;52.092;9.820;2023-03-31T03:45:05;10.50;99.90
8872;DHT22;4472;52.092;9.820;2023-03-31T03:47:53;10.50;99.90
8872;DHT22;4472;52.092;9.820;2023-03-31T03:50:40;10.50;99.90
8872;DHT22;4472;52.092;9.820;2023-03-31T03:53:27;10.50;99.90
8872;DHT22;4472;52.092;9.820;2023-03-31T03:56:16;10.50;99.90
8872;DHT22;4472;52.092;9.820;2023-03-31T03:59:03;10.50;99.90
8872;DHT22;4472;52.092;9.820;2023-03-31T04:01:50;10.50;99.90
8872;DHT22;4472;52.092;9.820;2023-03-31T04:04:37;10.30;99.90
8872;DHT22;4472;52.092;9.820;2023-03-31T04:07:25;10.50;99.90
8872;DHT22;4472;52.092;9.820;2023-03-31T04:10:12;10.40;99.90
8872;DHT22;4472;52.092;9.820;2023-03-31T04:13:00;10.50;99.90
8872;DHT22;4472;52.092;9.820;2023-03-31T04:15:48;10.50;99.90
8872;DHT22;4472;52.092;9.820;2023-03-31T04:18:35;10.50;99.90
8872;DHT22;4472;52.092;9.820;2023-03-31T04:21:27;10.50;99.90
8872;DHT22;4472;52.092;9.820;2023-03-31T04:24:15;10.50;99.90
8872;DHT22;4472;52.092;9.820;2023-03-31T04:27:06;10.50;99.90
8872;DHT22;4472;52.092;9.820;2023-03-31T04:29:54;10.50;99.90
8872;DHT22;4472;52.092;9.820;2023-03-31T04:32:41;10.50;99.90
8872;DHT22;4472;52.092;9.820;2023-03-31T04:35:29;10.50;99.90
8872;DHT22;4472;52.092;9.820;2023-03-31T04:38:27;10.60;99.90
8872;DHT22;4472;52.092;9.820;2023-03-31T04:41:18;10.60;99.90
8872;DHT22;4472;52.092;9.820;2023-03-31T04:44:05;10.60;99.90
8872;DHT22;4472;52.092;9.820;2023-03-31T04:46:54;10.60;99.90
8872;DHT22;4472;52.092;9.820;2023-03-31T04:49:41;10.80;99.90
8872;DHT22;4472;52.092;9.820;2023-03-31T04:52:28;10.80;99.90
8872;DHT22;4472;52.092;9.820;2023-03-31T04:55:15;10.70;99.90
8872;DHT22;4472;52.092;9.820;2023-03-31T05:00:50;10.70;99.90
8872;DHT22;4472;52.092;9.820;2023-03-31T05:03:39;10.70;99.90
8872;DHT22;4472;52.092;9.820;2023-03-31T05:06:27;10.70;99.90
8872;DHT22;4472;52.092;9.820;2023-03-31T05:09:14;10.60;99.90
8872;DHT22;4472;52.092;9.820;2023-03-31T05:12:01;10.60;99.90
8872;DHT22;4472;52.092;9.820;2023-03-31T05:14:48;10.60;99.90
8872;DHT22;4472;52.092;9.820;2023-03-31T05:17:35;10.60;99.90
8872;DHT22;4472;52.092;9.820;2023-03-31T05:20:24;10.60;99.90
8872;DHT22;4472;52.092;9.820;2023-03-31T05:23:11;10.60;99.90
8872;DHT22;4472;52.092;9.820;2023-03-31T05:25:58;10.60;99.90
8872;DHT22;4472;52.092;9.820;2023-03-31T05:28:45;10.60;99.90
8872;DHT22;4472;52.092;9.820;2023-03-31T05:31:33;10.60;99.90
8872;DHT22;4472;52.092;9.820;2023-03-31T05:34:20;10.70;99.90
8872;DHT22;4472;52.092;9.820;2023-03-31T05:37:08;10.70;99.90
8872;DHT22;4472;52.092;9.820;2023-03-31T05:39:55;10.70;99.90
8872;DHT22;4472;52.092;9.820;2023-03-31T05:42:43;10.70;99.90
8872;DHT22;4472;52.092;9.820;2023-03-31T05:45:31;10.70;99.90
8872;DHT22;4472;52.092;9.820;2023-03-31T05:48:18;10.70;99.90
8872;DHT22;4472;52.092;9.820;2023-03-31T05:51:06;10.70;99.90
8872;DHT22;4472;52.092;9.820;2023-03-31T05:53:54;10.80;99.90
8872;DHT22;4472;52.092;9.820;2023-03-31T05:56:41;10.80;99.90
8872;DHT22;4472;52.092;9.820;2023-03-31T05:59:28;10.90;99.90
8872;DHT22;4472;52.092;9.820;2023-03-31T06:02:15;10.90;99.90
8872;DHT22;4472;52.092;9.820;2023-03-31T06:05:03;11.00;99.90
8872;DHT22;4472;52.092;9.820;2023-03-31T06:07:50;11.10;99.90
8872;DHT22;4472;52.092;9.820;2023-03-31T06:10:39;11.20;99.90
8872;DHT22;4472;52.092;9.820;2023-03-31T06:13:27;11.20;99.90
8872;DHT22;4472;52.092;9.820;2023-03-31T06:16:15;11.30;99.90
8872;DHT22;4472;52.092;9.820;2023-03-31T06:19:02;11.30;99.90
8872;DHT22;4472;52.092;9.820;2023-03-31T06:21:49;11.30;99.90
8872;DHT22;4472;52.092;9.820;2023-03-31T06:24:37;11.40;99.90
8872;DHT22;4472;52.092;9.820;2023-03-31T06:27:25;11.40;99.90
8872;DHT22;4472;52.092;9.820;2023-03-31T06:30:12;11.30;99.90
8872;DHT22;4472;52.092;9.820;2023-03-31T06:33:00;11.30;99.90
8872;DHT22;4472;52.092;9.820;2023-03-31T06:35:47;11.30;99.90
8872;DHT22;4472;52.092;9.820;2023-03-31T06:38:35;11.30;99.90
8872;DHT22;4472;52.092;9.820;2023-03-31T06:41:23;11.40;99.90
8872;DHT22;4472;52.092;9.820;2023-03-31T06:44:12;11.40;99.90
8872;DHT22;4472;52.092;9.820;2023-03-31T06:47:01;11.40;99.90
8872;DHT22;4472;52.092;9.820;2023-03-31T06:49:48;11.40;99.90
8872;DHT22;4472;52.092;9.820;2023-03-31T06:52:35;11.40;99.90
8872;DHT22;4472;52.092;9.820;2023-03-31T06:55:22;11.50;99.90
8872;DHT22;4472;52.092;9.820;2023-03-31T06:58:10;11.50;99.90
8872;DHT22;4472;52.092;9.820;2023-03-31T07:01:01;11.50;99.90
8872;DHT22;4472;52.092;9.820;2023-03-31T07:03:48;11.40;99.90
8872;DHT22;4472;52.092;9.820;2023-03-31T07:06:35;11.40;99.90
8872;DHT22;4472;52.092;9.820;2023-03-31T07:09:22;11.40;99.90
8872;DHT22;4472;52.092;9.820;2023-03-31T07:12:09;11.50;99.90
8872;DHT22;4472;52.092;9.820;2023-03-31T07:14:56;11.50;99.90
8872;DHT22;4472;52.092;9.820;2023-03-31T07:17:45;11.50;99.90
8872;DHT22;4472;52.092;9.820;2023-03-31T07:20:35;11.50;99.90
8872;DHT22;4472;52.092;9.820;2023-03-31T07:23:23;11.50;99.90
8872;DHT22;4472;52.092;9.820;2023-03-31T07:26:11;11.40;99.90
8872;DHT22;4472;52.092;9.820;2023-03-31T07:28:59;11.50;99.90
8872;DHT22;4472;52.092;9.820;2023-03-31T07:31:46;11.50;99.90
8872;DHT22;4472;52.092;9.820;2023-03-31T07:34:36;11.60;99.90
8872;DHT22;4472;52.092;9.820;2023-03-31T07:37:34;11.60;99.90
8872;DHT22;4472;52.092;9.820;2023-03-31T07:40:24;11.50;99.90
8872;DHT22;4472;52.092;9.820;2023-03-31T07:43:12;11.50;99.90
8872;DHT22;4472;52.092;9.820;2023-03-31T07:45:59;11.60;99.90
8872;DHT22;4472;52.092;9.820;2023-03-31T07:48:48;11.60;99.90
8872;DHT22;4472;52.092;9.820;2023-03-31T07:51:38;11.60;99.90
8872;DHT22;4472;52.092;9.820;2023-03-31T07:54:25;11.70;99.90
8872;DHT22;4472;52.092;9.820;2023-03-31T07:57:15;11.90;99.90
8872;DHT22;4472;52.092;9.820;2023-03-31T08:00:06;12.00;99.90
8872;DHT22;4472;52.092;9.820;2023-03-31T08:02:56;12.10;99.90
8872;DHT22;4472;52.092;9.820;2023-03-31T08:05:51;12.10;99.90
8872;DHT22;4472;52.092;9.820;2023-03-31T08:08:52;12.10;99.90
8872;DHT22;4472;52.092;9.820;2023-03-31T08:11:49;12.10;99.90
8872;DHT22;4472;52.092;9.820;2023-03-31T08:14:44;12.10;99.90
8872;DHT22;4472;52.092;9.820;2023-03-31T08:20:39;12.10;99.90
8872;DHT22;4472;52.092;9.820;2023-03-31T08:23:37;12.30;99.90
8872;DHT22;4472;52.092;9.820;2023-03-31T08:26:37;12.40;99.90
8872;DHT22;4472;52.092;9.820;2023-03-31T08:29:35;12.40;99.90
8872;DHT22;4472;52.092;9.820;2023-03-31T08:32:29;12.50;99.90
8872;DHT22;4472;52.092;9.820;2023-03-31T08:35:16;12.50;99.90
8872;DHT22;4472;52.092;9.820;2023-03-31T08:38:03;12.60;99.90
8872;DHT22;4472;52.092;9.820;2023-03-31T08:40:51;12.60;99.90
8872;DHT22;4472;52.092;9.820;2023-03-31T08:43:42;12.60;99.90
8872;DHT22;4472;52.092;9.820;2023-03-31T08:46:31;12.70;99.90
8872;DHT22;4472;52.092;9.820;2023-03-31T08:49:20;12.80;99.90
8872;DHT22;4472;52.092;9.820;2023-03-31T08:52:12;12.80;99.90
8872;DHT22;4472;52.092;9.820;2023-03-31T08:55:03;12.70;99.90
8872;DHT22;4472;52.092;9.820;2023-03-31T08:57:55;12.70;99.90
8872;DHT22;4472;52.092;9.820;2023-03-31T09:00:51;12.60;99.90
8872;DHT22;4472;52.092;9.820;2023-03-31T09:03:45;12.50;99.90
8872;DHT22;4472;52.092;9.820;2023-03-31T09:06:40;12.40;99.90
8872;DHT22;4472;52.092;9.820;2023-03-31T09:09:34;12.40;99.90
8872;DHT22;4472;52.092;9.820;2023-03-31T09:12:34;12.30;99.90
8872;DHT22;4472;52.092;9.820;2023-03-31T09:15:27;12.30;99.90
8872;DHT22;4472;52.092;9.820;2023-03-31T09:18:18;12.20;99.90
8872;DHT22;4472;52.092;9.820;2023-03-31T09:21:16;12.10;99.90
8872;DHT22;4472;52.092;9.820;2023-03-31T09:24:07;12.10;99.90
8872;DHT22;4472;52.092;9.820;2023-03-31T09:26:59;12.00;99.90
8872;DHT22;4472;52.092;9.820;2023-03-31T09:29:50;11.90;99.90
8872;DHT22;4472;52.092;9.820;2023-03-31T09:32:38;11.80;99.90
8872;DHT22;4472;52.092;9.820;2023-03-31T09:35:27;11.70;99.90
8872;DHT22;4472;52.092;9.820;2023-03-31T09:38:18;11.60;99.90
8872;DHT22;4472;52.092;9.820;2023-03-31T09:41:05;11.60;99.90
8872;DHT22;4472;52.092;9.820;2023-03-31T09:43:52;11.60;99.90
8872;DHT22;4472;52.092;9.820;2023-03-31T09:46:40;11.60;99.90
8872;DHT22;4472;52.092;9.820;2023-03-31T09:49:30;11.60;99.90
8872;DHT22;4472;52.092;9.820;2023-03-31T09:52:26;11.60;99.90
8872;DHT22;4472;52.092;9.820;2023-03-31T09:55:19;11.60;99.90
8872;DHT22;4472;52.092;9.820;2023-03-31T09:58:10;11.60;99.90
8872;DHT22;4472;52.092;9.820;2023-03-31T10:00:59;11.60;99.90
8872;DHT22;4472;52.092;9.820;2023-03-31T10:03:49;11.60;99.90
8872;DHT22;4472;52.092;9.820;2023-03-31T10:06:39;11.60;99.90
8872;DHT22;4472;52.092;9.820;2023-03-31T10:09:30;11.60;99.90
8872;DHT22;4472;52.092;9.820;2023-03-31T10:12:20;11.60;99.90
8872;DHT22;4472;52.092;9.820;2023-03-31T10:15:18;11.60;99.90
8872;DHT22;4472;52.092;9.820;2023-03-31T10:18:13;11.60;99.90
8872;DHT22;4472;52.092;9.820;2023-03-31T10:21:01;11.60;99.90
8872;DHT22;4472;52.092;9.820;2023-03-31T10:23:50;11.60;99.90
8872;DHT22;4472;52.092;9.820;2023-03-31T10:26:39;11.60;99.90
8872;DHT22;4472;52.092;9.820;2023-03-31T10:29:29;11.70;99.90
8872;DHT22;4472;52.092;9.820;2023-03-31T10:32:19;11.70;99.90
8872;DHT22;4472;52.092;9.820;2023-03-31T10:35:20;11.60;99.90
8872;DHT22;4472;52.092;9.820;2023-03-31T10:38:12;11.60;99.90
8872;DHT22;4472;52.092;9.820;2023-03-31T10:41:01;11.70;99.90
8872;DHT22;4472;52.092;9.820;2023-03-31T10:43:51;11.70;99.90
8872;DHT22;4472;52.092;9.820;2023-03-31T10:46:41;11.70;99.90
8872;DHT22;4472;52.092;9.820;2023-03-31T10:49:28;11.80;99.90
8872;DHT22;4472;52.092;9.820;2023-03-31T10:52:18;11.80;99.90
8872;DHT22;4472;52.092;9.820;2023-03-31T10:55:11;11.80;99.90
8872;DHT22;4472;52.092;9.820;2023-03-31T10:58:03;11.70;99.90
8872;DHT22;4472;52.092;9.820;2023-03-31T11:01:05;11.70;99.90
8872;DHT22;4472;52.092;9.820;2023-03-31T11:04:08;11.70;99.90
8872;DHT22;4472;52.092;9.820;2023-03-31T11:07:07;11.80;99.90
8872;DHT22;4472;52.092;9.820;2023-03-31T11:10:09;11.80;99.90
8872;DHT22;4472;52.092;9.820;2023-03-31T11:13:10;11.90;99.90
8872;DHT22;4472;52.092;9.820;2023-03-31T11:16:09;12.00;99.90
8872;DHT22;4472;52.092;9.820;2023-03-31T11:19:13;12.10;99.90
8872;DHT22;4472;52.092;9.820;2023-03-31T11:22:08;12.20;99.90
8872;DHT22;4472;52.092;9.820;2023-03-31T11:25:13;12.40;99.90
8872;DHT22;4472;52.092;9.820;2023-03-31T11:28:24;12.50;99.90
8872;DHT22;4472;52.092;9.820;2023-03-31T11:31:24;12.70;99.90
8872;DHT22;4472;52.092;9.820;2023-03-31T11:34:24;13.00;99.90
8872;DHT22;4472;52.092;9.820;2023-03-31T11:40:46;13.30;99.90
8872;DHT22;4472;52.092;9.820;2023-03-31T11:43:40;13.40;99.90
8872;DHT22;4472;52.092;9.820;2023-03-31T11:46:36;13.40;99.90
8872;DHT22;4472;52.092;9.820;2023-03-31T11:49:27;13.40;99.90
8872;DHT22;4472;52.092;9.820;2023-03-31T11:52:17;13.40;99.90
8872;DHT22;4472;52.092;9.820;2023-03-31T11:55:11;13.30;99.90
8872;DHT22;4472;52.092;9.820;2023-03-31T11:58:04;13.20;99.90
8872;DHT22;4472;52.092;9.820;2023-03-31T12:00:55;13.10;99.90
8872;DHT22;4472;52.092;9.820;2023-03-31T12:03:51;13.10;99.90
8872;DHT22;4472;52.092;9.820;2023-03-31T12:06:42;13.00;99.90
8872;DHT22;4472;52.092;9.820;2023-03-31T12:09:36;12.90;99.90
8872;DHT22;4472;52.092;9.820;2023-03-31T12:12:27;12.80;99.90
8872;DHT22;4472;52.092;9.820;2023-03-31T12:15:19;12.80;99.90
8872;DHT22;4472;52.092;9.820;2023-03-31T12:18:11;12.80;99.90
8872;DHT22;4472;52.092;9.820;2023-03-31T12:21:03;12.90;99.90
8872;DHT22;4472;52.092;9.820;2023-03-31T12:23:51;12.90;99.90
8872;DHT22;4472;52.092;9.820;2023-03-31T12:26:43;12.90;99.90
8872;DHT22;4472;52.092;9.820;2023-03-31T12:29:36;12.80;99.90
8872;DHT22;4472;52.092;9.820;2023-03-31T12:32:27;12.70;99.90
8872;DHT22;4472;52.092;9.820;2023-03-31T12:35:20;12.50;99.90
8872;DHT22;4472;52.092;9.820;2023-03-31T12:38:17;12.40;99.90
8872;DHT22;4472;52.092;9.820;2023-03-31T12:41:13;12.40;99.90
8872;DHT22;4472;52.092;9.820;2023-03-31T12:44:13;12.40;99.90
8872;DHT22;4472;52.092;9.820;2023-03-31T12:50:51;12.60;99.90
8872;DHT22;4472;52.092;9.820;2023-03-31T12:53:49;12.70;99.90
8872;DHT22;4472;52.092;9.820;2023-03-31T12:57:13;12.90;99.90
8872;DHT22;4472;52.092;9.820;2023-03-31T13:00:29;13.00;99.90
8872;DHT22;4472;52.092;9.820;2023-03-31T13:03:43;13.10;99.90
8872;DHT22;4472;52.092;9.820;2023-03-31T13:06:58;13.20;99.90
8872;DHT22;4472;52.092;9.820;2023-03-31T13:09:48;13.20;99.90
8872;DHT22;4472;52.092;9.820;2023-03-31T13:12:38;13.40;99.90
8872;DHT22;4472;52.092;9.820;2023-03-31T13:15:26;13.40;99.90
8872;DHT22;4472;52.092;9.820;2023-03-31T13:18:19;13.50;99.90
8872;DHT22;4472;52.092;9.820;2023-03-31T13:21:06;13.70;99.90
8872;DHT22;4472;52.092;9.820;2023-03-31T13:23:58;13.80;99.90
8872;DHT22;4472;52.092;9.820;2023-03-31T13:26:48;13.90;99.90
8872;DHT22;4472;52.092;9.820;2023-03-31T13:29:40;14.10;99.90
8872;DHT22;4472;52.092;9.820;2023-03-31T13:32:28;14.30;99.90
8872;DHT22;4472;52.092;9.820;2023-03-31T13:35:18;14.50;99.90
8872;DHT22;4472;52.092;9.820;2023-03-31T13:38:17;14.50;99.90
8872;DHT22;4472;52.092;9.820;2023-03-31T13:41:20;14.60;99.90
8872;DHT22;4472;52.092;9.820;2023-03-31T13:51:28;14.50;99.90
8872;DHT22;4472;52.092;9.820;2023-03-31T13:54:49;14.40;99.90
8872;DHT22;4472;52.092;9.820;2023-03-31T13:57:59;14.40;99.90
8872;DHT22;4472;52.092;9.820;2023-03-31T14:01:03;14.50;99.90
8872;DHT22;4472;52.092;9.820;2023-03-31T14:04:05;14.50;99.90
8872;DHT22;4472;52.092;9.820;2023-03-31T14:06:57;14.50;99.90
8872;DHT22;4472;52.092;9.820;2023-03-31T14:09:45;14.50;99.90
8872;DHT22;4472;52.092;9.820;2023-03-31T14:12:36;14.60;99.90
8872;DHT22;4472;52.092;9.820;2023-03-31T14:15:23;14.60;99.90
8872;DHT22;4472;52.092;9.820;2023-03-31T14:18:14;14.30;99.90
8872;DHT22;4472;52.092;9.820;2023-03-31T14:21:11;14.20;99.90
8872;DHT22;4472;52.092;9.820;2023-03-31T14:24:09;14.10;99.90
8872;DHT22;4472;52.092;9.820;2023-03-31T14:27:05;14.10;99.90
8872;DHT22;4472;52.092;9.820;2023-03-31T14:30:01;14.10;99.90
8872;DHT22;4472;52.092;9.820;2023-03-31T14:33:03;14.20;99.90
8872;DHT22;4472;52.092;9.820;2023-03-31T14:35:56;14.00;99.90
8872;DHT22;4472;52.092;9.820;2023-03-31T14:38:47;13.80;99.90
8872;DHT22;4472;52.092;9.820;2023-03-31T14:41:35;13.60;99.90
8872;DHT22;4472;52.092;9.820;2023-03-31T14:44:24;13.40;99.90
8872;DHT22;4472;52.092;9.820;2023-03-31T14:47:14;13.30;99.90
8872;DHT22;4472;52.092;9.820;2023-03-31T14:50:04;13.20;99.90
8872;DHT22;4472;52.092;9.820;2023-03-31T14:52:52;13.20;99.90
8872;DHT22;4472;52.092;9.820;2023-03-31T14:55:41;13.40;99.90
8872;DHT22;4472;52.092;9.820;2023-03-31T14:58:31;13.40;99.90
8872;DHT22;4472;52.092;9.820;2023-03-31T15:01:24;13.60;99.90
8872;DHT22;4472;52.092;9.820;2023-03-31T15:04:16;13.70;99.90
8872;DHT22;4472;52.092;9.820;2023-03-31T15:07:05;13.80;99.90
8872;DHT22;4472;52.092;9.820;2023-03-31T15:09:52;14.00;99.90
8872;DHT22;4472;52.092;9.820;2023-03-31T15:12:43;14.10;99.90
8872;DHT22;4472;52.092;9.820;2023-03-31T15:15:32;14.00;99.90
8872;DHT22;4472;52.092;9.820;2023-03-31T15:18:19;14.00;99.90
8872;DHT22;4472;52.092;9.820;2023-03-31T15:21:09;13.80;99.90
8872;DHT22;4472;52.092;9.820;2023-03-31T15:24:03;13.60;99.90
8872;DHT22;4472;52.092;9.820;2023-03-31T15:26:56;13.40;99.90
8872;DHT22;4472;52.092;9.820;2023-03-31T15:29:47;13.20;99.90
8872;DHT22;4472;52.092;9.820;2023-03-31T15:32:36;13.20;99.90
8872;DHT22;4472;52.092;9.820;2023-03-31T15:35:27;13.10;99.90
8872;DHT22;4472;52.092;9.820;2023-03-31T15:38:16;13.00;99.90
8872;DHT22;4472;52.092;9.820;2023-03-31T15:41:10;12.90;99.90
8872;DHT22;4472;52.092;9.820;2023-03-31T15:44:04;12.90;99.90
8872;DHT22;4472;52.092;9.820;2023-03-31T15:46:59;12.80;99.90
8872;DHT22;4472;52.092;9.820;2023-03-31T15:49:51;12.80;99.90
8872;DHT22;4472;52.092;9.820;2023-03-31T15:52:46;12.80;99.90
8872;DHT22;4472;52.092;9.820;2023-03-31T15:55:39;12.80;99.90
8872;DHT22;4472;52.092;9.820;2023-03-31T15:58:46;12.80;99.90
8872;DHT22;4472;52.092;9.820;2023-03-31T16:01:36;12.70;99.90
8872;DHT22;4472;52.092;9.820;2023-03-31T16:04:30;12.70;99.90
8872;DHT22;4472;52.092;9.820;2023-03-31T16:07:19;12.80;99.90
8872;DHT22;4472;52.092;9.820;2023-03-31T16:10:13;12.80;99.90
8872;DHT22;4472;52.092;9.820;2023-03-31T16:13:05;12.80;99.90
8872;DHT22;4472;52.092;9.820;2023-03-31T16:15:54;12.80;99.90
8872;DHT22;4472;52.092;9.820;2023-03-31T16:18:43;12.80;99.90
8872;DHT22;4472;52.092;9.820;2023-03-31T16:21:36;12.80;99.90
8872;DHT22;4472;52.092;9.820;2023-03-31T16:24:29;12.80;99.90
8872;DHT22;4472;52.092;9.820;2023-03-31T16:27:17;12.80;99.90
8872;DHT22;4472;52.092;9.820;2023-03-31T16:30:09;12.80;99.90
8872;DHT22;4472;52.092;9.820;2023-03-31T16:33:02;12.80;99.90
8872;DHT22;4472;52.092;9.820;2023-03-31T16:35:51;12.80;99.90
8872;DHT22;4472;52.092;9.820;2023-03-31T16:38:42;12.80;99.90
8872;DHT22;4472;52.092;9.820;2023-03-31T16:41:30;12.80;99.90
8872;DHT22;4472;52.092;9.820;2023-03-31T16:44:17;12.90;99.90
8872;DHT22;4472;52.092;9.820;2023-03-31T16:47:04;12.80;99.90
8872;DHT22;4472;52.092;9.820;2023-03-31T16:49:51;12.80;99.90
8872;DHT22;4472;52.092;9.820;2023-03-31T16:52:39;12.80;99.90
8872;DHT22;4472;52.092;9.820;2023-03-31T16:55:28;12.80;99.90
8872;DHT22;4472;52.092;9.820;2023-03-31T16:58:16;12.80;99.90
8872;DHT22;4472;52.092;9.820;2023-03-31T17:01:04;12.80;99.90
8872;DHT22;4472;52.092;9.820;2023-03-31T17:03:52;12.80;99.90
8872;DHT22;4472;52.092;9.820;2023-03-31T17:06:39;12.70;99.90
8872;DHT22;4472;52.092;9.820;2023-03-31T17:09:27;12.60;99.90
8872;DHT22;4472;52.092;9.820;2023-03-31T17:12:16;12.50;99.90
8872;DHT22;4472;52.092;9.820;2023-03-31T17:15:03;12.50;99.90
8872;DHT22;4472;52.092;9.820;2023-03-31T17:17:50;12.40;99.90
8872;DHT22;4472;52.092;9.820;2023-03-31T17:20:38;12.40;99.90
8872;DHT22;4472;52.092;9.820;2023-03-31T17:23:25;12.30;99.90
8872;DHT22;4472;52.092;9.820;2023-03-31T17:26:12;12.20;99.90
8872;DHT22;4472;52.092;9.820;2023-03-31T17:29:01;12.10;99.90
8872;DHT22;4472;52.092;9.820;2023-03-31T17:31:48;12.00;99.90
8872;DHT22;4472;52.092;9.820;2023-03-31T17:34:37;12.00;99.90
8872;DHT22;4472;52.092;9.820;2023-03-31T17:37:24;11.90;99.90
8872;DHT22;4472;52.092;9.820;2023-03-31T17:40:12;11.90;99.90
8872;DHT22;4472;52.092;9.820;2023-03-31T17:43:00;11.90;99.90
8872;DHT22;4472;52.092;9.820;2023-03-31T17:45:48;11.80;99.90
8872;DHT22;4472;52.092;9.820;2023-03-31T17:48:36;12.00;99.90
8872;DHT22;4472;52.092;9.820;2023-03-31T17:51:24;11.70;99.90
8872;DHT22;4472;52.092;9.820;2023-03-31T17:54:12;11.60;99.90
8872;DHT22;4472;52.092;9.820;2023-03-31T17:56:59;11.60;99.90
8872;DHT22;4472;52.092;9.820;2023-03-31T17:59:46;11.60;99.90
8872;DHT22;4472;52.092;9.820;2023-03-31T18:02:36;11.50;99.90
8872;DHT22;4472;52.092;9.820;2023-03-31T18:05:23;11.50;99.90
8872;DHT22;4472;52.092;9.820;2023-03-31T18:08:10;11.50;99.90
8872;DHT22;4472;52.092;9.820;2023-03-31T18:10:58;11.50;99.90
8872;DHT22;4472;52.092;9.820;2023-03-31T18:13:45;11.50;99.90
8872;DHT22;4472;52.092;9.820;2023-03-31T18:16:32;11.50;99.90
8872;DHT22;4472;52.092;9.820;2023-03-31T18:19:21;11.60;99.90
8872;DHT22;4472;52.092;9.820;2023-03-31T18:22:09;11.60;99.90
8872;DHT22;4472;52.092;9.820;2023-03-31T18:24:56;11.60;99.90
8872;DHT22;4472;52.092;9.820;2023-03-31T18:27:43;11.70;99.90
8872;DHT22;4472;52.092;9.820;2023-03-31T18:30:32;11.70;99.90
8872;DHT22;4472;52.092;9.820;2023-03-31T18:33:19;11.70;99.90
8872;DHT22;4472;52.092;9.820;2023-03-31T18:36:08;11.70;99.90
8872;DHT22;4472;52.092;9.820;2023-03-31T18:38:59;11.70;99.90
8872;DHT22;4472;52.092;9.820;2023-03-31T18:41:46;11.70;99.90
8872;DHT22;4472;52.092;9.820;2023-03-31T18:44:34;11.70;99.90
8872;DHT22;4472;52.092;9.820;2023-03-31T18:47:21;11.60;99.90
8872;DHT22;4472;52.092;9.820;2023-03-31T18:50:09;11.70;99.90
8872;DHT22;4472;52.092;9.820;2023-03-31T18:53:00;11.70;99.90
8872;DHT22;4472;52.092;9.820;2023-03-31T18:55:48;11.60;99.90
8872;DHT22;4472;52.092;9.820;2023-03-31T18:58:35;11.60;99.90
8872;DHT22;4472;52.092;9.820;2023-03-31T19:01:23;11.50;99.90